Alba, Pennsylvania
Current Conditions -  °F | °C
As of 11:15 PM on Sunday 23 Nov 2014 (Local Time) from KN38 Reporting Station
Light Rain Light Rain  
Wind Chill: 37°   Ceiling: 1700
Heat Index: 45°   Visibility: 8mi
Dew Point: 36°   Wind: 16mph
Humidity: 71%   Direction: 180°S
Pressure: 29.81"   Gusts: 24mph
Location:  41.71°N, 76.83°W
Report Text: KN38 240415Z AUTO 18014G21KT 8SM -RA OVC017 07/02 A2981 RMK AO2
Loading
Personal Weather Stations






























Interactive Weather Map New forecast layout! Learn more

10-Day Weather Forecast

Advertisements
Track Severe Weather on mobile